Time;durP1;ratioP1;P1;durP2;ratioP2;P2;SDS_P1;SDS_P2;PMS_P1;PMS_P2;Temp;Humidity;BMP_temperature;BMP_pressure;BME280_temperature;BME280_humidity;BME280_pressure;Samples;Min_cycle;Max_cycle;Signal;HPM_P1;HPM_P2
2022/05/15 00:02:12;;;;;;;10.57;8.65;;;;;;;11.99;100.00;93368.06;5061053;28;21238;-73
2022/05/15 00:04:39;;;;;;;11.70;9.88;;;;;;;11.95;100.00;93365.13;5060768;28;20052;-74
2022/05/15 00:07:07;;;;;;;10.82;8.68;;;;;;;11.80;100.00;93346.69;5060115;28;20051;-74
2022/05/15 00:09:34;;;;;;;14.60;9.35;;;;;;;11.83;100.00;93364.25;5058989;28;20408;-74
2022/05/15 00:12:04;;;;;;;13.48;9.68;;;;;;;11.76;100.00;93369.50;5062108;28;20040;-73
2022/05/15 00:14:31;;;;;;;11.75;9.35;;;;;;;11.71;100.00;93364.97;5062910;28;20053;-73
2022/05/15 00:16:58;;;;;;;12.93;10.50;;;;;;;11.69;100.00;93368.75;5058055;28;20059;-74
2022/05/15 00:19:26;;;;;;;11.68;9.73;;;;;;;11.65;100.00;93370.97;5061661;28;20049;-73
2022/05/15 00:21:53;;;;;;;11.82;9.93;;;;;;;11.62;100.00;93363.69;5059351;28;20119;-73
2022/05/15 00:24:20;;;;;;;11.88;9.88;;;;;;;11.61;100.00;93370.59;5059961;28;20415;-73
2022/05/15 00:26:47;;;;;;;11.50;9.93;;;;;;;11.58;100.00;93367.66;5059885;28;20052;-73
2022/05/15 00:29:15;;;;;;;13.10;9.57;;;;;;;11.54;100.00;93375.03;5062670;28;20047;-74
2022/05/15 00:31:42;;;;;;;10.82;9.73;;;;;;;11.56;100.00;93369.63;5067979;28;20051;-74
2022/05/15 00:34:09;;;;;;;12.80;9.75;;;;;;;11.52;100.00;93368.50;5068214;28;20488;-73
2022/05/15 00:36:36;;;;;;;11.98;9.38;;;;;;;11.39;100.00;93356.53;5063527;28;20044;-74
2022/05/15 00:39:04;;;;;;;12.05;9.38;;;;;;;11.49;100.00;93375.63;5067221;28;20055;-73
2022/05/15 00:41:31;;;;;;;11.02;9.15;;;;;;;11.52;100.00;93376.22;5067690;28;20530;-73
2022/05/15 00:43:59;;;;;;;10.85;9.30;;;;;;;11.48;100.00;93366.34;5065600;28;20063;-74
2022/05/15 00:46:30;;;;;;;10.30;7.90;;;;;;;11.41;100.00;93380.25;5066485;28;20052;-74
2022/05/15 00:49:01;;;;;;;10.63;7.05;;;;;;;11.33;100.00;93379.53;5062997;28;20554;-73
2022/05/15 00:51:45;;;;;;;8.52;7.38;;;;;;;11.28;100.00;93378.56;5066420;28;20055;-74
2022/05/15 00:54:16;;;;;;;8.95;7.57;;;;;;;11.21;100.00;93373.50;5064270;28;20044;-75
2022/05/15 00:56:49;;;;;;;8.82;7.07;;;;;;;11.14;100.00;93367.59;5064993;28;20048;-74
2022/05/15 00:59:19;;;;;;;10.05;7.45;;;;;;;11.14;100.00;93367.59;5065316;28;20048;-73
2022/05/15 01:01:47;;;;;;;9.02;6.85;;;;;;;11.04;100.00;93357.78;5066414;28;20040;-73
2022/05/15 01:04:14;;;;;;;9.45;7.35;;;;;;;11.11;100.00;93368.81;5067617;28;20051;-72
2022/05/15 01:06:43;;;;;;;10.40;7.80;;;;;;;11.09;100.00;93373.38;5066015;28;20044;-73
2022/05/15 01:09:10;;;;;;;9.20;7.78;;;;;;;11.04;100.00;93370.63;5065162;28;20156;-73
2022/05/15 01:11:39;;;;;;;12.63;9.23;;;;;;;10.98;100.00;93367.13;5064255;28;20047;-72
2022/05/15 01:14:10;;;;;;;14.05;9.32;;;;;;;10.98;100.00;93374.03;5066230;28;20052;-72
2022/05/15 01:16:37;;;;;;;13.23;9.30;;;;;;;10.93;100.00;93360.03;5064620;28;20067;-72
2022/05/15 01:19:06;;;;;;;12.77;8.55;;;;;;;11.00;100.00;93370.28;5065740;28;20045;-72
2022/05/15 01:21:36;;;;;;;11.20;8.05;;;;;;;11.04;100.00;93373.22;5055031;28;20051;-72
2022/05/15 01:24:06;;;;;;;11.05;7.78;;;;;;;11.09;100.00;93374.16;5049086;28;20060;-72
2022/05/15 01:26:34;;;;;;;13.35;8.35;;;;;;;11.05;100.00;93361.94;5049151;28;20075;-72
2022/05/15 01:29:04;;;;;;;12.25;8.32;;;;;;;11.06;100.00;93371.22;5049218;28;20543;-72
2022/05/15 01:31:33;;;;;;;13.93;9.48;;;;;;;11.01;100.00;93371.84;5049398;28;20400;-72
2022/05/15 01:33:59;;;;;;;15.23;10.30;;;;;;;10.95;100.00;93370.91;5049007;28;20518;-72
2022/05/15 01:36:26;;;;;;;32.20;15.77;;;;;;;10.90;100.00;93370.72;5049065;28;20059;-72
2022/05/15 01:38:55;;;;;;;30.10;15.23;;;;;;;10.83;100.00;93365.63;5049053;28;20049;-72
2022/05/15 01:41:23;;;;;;;25.85;13.52;;;;;;;10.77;100.00;93358.75;5048965;28;20579;-72
2022/05/15 01:43:52;;;;;;;22.75;12.68;;;;;;;10.88;100.00;93372.72;5048951;28;20049;-72
2022/05/15 01:46:21;;;;;;;15.95;10.73;;;;;;;10.85;100.00;93369.75;5049130;28;20099;-73
2022/05/15 01:48:48;;;;;;;22.63;12.52;;;;;;;10.88;100.00;93374.50;5049276;28;20071;-72
2022/05/15 01:51:16;;;;;;;22.48;12.45;;;;;;;10.02;100.00;93241.97;5049243;28;20385;-73
2022/05/15 01:53:43;;;;;;;23.63;13.30;;;;;;;10.89;100.00;93365.78;5049300;28;20053;-72
2022/05/15 01:56:12;;;;;;;18.75;12.35;;;;;;;10.94;100.00;93373.66;5052686;28;20049;-73
2022/05/15 01:58:39;;;;;;;24.20;13.73;;;;;;;10.93;100.00;93382.38;5053152;28;20087;-72
2022/05/15 02:01:07;;;;;;;23.38;13.30;;;;;;;10.79;100.00;93350.84;5053208;28;20051;-72
2022/05/15 02:03:34;;;;;;;22.95;13.02;;;;;;;11.01;100.00;93376.97;5053061;28;20408;-73
2022/05/15 02:06:02;;;;;;;21.55;12.48;;;;;;;11.03;100.00;93382.72;5053069;28;21160;-72
2022/05/15 02:08:31;;;;;;;21.00;13.68;;;;;;;11.08;100.00;93382.84;5053003;28;20053;-72
2022/05/15 02:10:58;;;;;;;19.83;12.82;;;;;;;10.99;100.00;93370.47;5052501;28;20045;-72
2022/05/15 02:13:26;;;;;;;19.00;11.20;;;;;;;11.11;100.00;93381.66;5052705;28;20037;-72
2022/05/15 02:15:53;;;;;;;15.60;10.20;;;;;;;11.13;100.00;93386.59;5052698;28;20045;-73
2022/05/15 02:18:19;;;;;;;15.70;9.88;;;;;;;11.12;100.00;93377.31;5052521;28;20061;-73
2022/05/15 02:20:46;;;;;;;13.63;9.20;;;;;;;11.09;100.00;93381.88;5052864;28;20049;-72
2022/05/15 02:23:13;;;;;;;18.08;9.65;;;;;;;11.06;100.00;93390.00;5052538;28;20492;-73
2022/05/15 02:25:40;;;;;;;14.27;9.85;;;;;;;10.92;100.00;93366.16;5052548;28;20053;-73
2022/05/15 02:28:08;;;;;;;19.17;10.13;;;;;;;10.96;100.00;93382.75;5052459;28;20488;-72
2022/05/15 02:30:36;;;;;;;14.10;9.73;;;;;;;10.96;100.00;93384.53;5052546;28;20067;-72
2022/05/15 02:33:03;;;;;;;14.60;10.18;;;;;;;10.89;100.00;93386.34;5052511;28;20385;-73
2022/05/15 02:35:31;;;;;;;18.27;9.68;;;;;;;10.72;100.00;93363.72;5052497;28;20052;-73
2022/05/15 02:37:57;;;;;;;18.08;11.32;;;;;;;10.85;100.00;93385.97;5052250;28;20041;-73
2022/05/15 02:40:25;;;;;;;15.75;10.25;;;;;;;10.81;100.00;93387.38;5052730;28;20057;-72
2022/05/15 02:42:54;;;;;;;14.60;10.18;;;;;;;10.81;100.00;93387.38;5052133;28;20045;-73
2022/05/15 02:45:21;;;;;;;14.43;10.43;;;;;;;10.74;100.00;93389.22;5052086;28;20084;-73
2022/05/15 02:47:50;;;;;;;16.23;10.82;;;;;;;10.73;100.00;93390.97;5051996;28;20505;-73
2022/05/15 02:53:02;;;;;;;13.27;9.48;;;;;;;10.47;100.00;93384.19;5051931;28;20126;-72
2022/05/15 02:55:29;;;;;;;14.60;9.77;;;;;;;10.44;100.00;93398.22;5052394;28;20063;-72
2022/05/15 02:57:57;;;;;;;13.23;9.90;;;;;;;10.10;100.00;93354.66;5051882;28;20053;-72
2022/05/15 03:00:26;;;;;;;17.88;12.02;;;;;;;10.35;100.00;93397.63;5052212;28;20053;-72
2022/05/15 03:02:55;;;;;;;17.70;11.57;;;;;;;10.43;100.00;93394.09;5052150;28;20053;-72
2022/05/15 03:05:22;;;;;;;15.27;10.77;;;;;;;10.45;100.00;93404.94;5051703;28;20049;-72
2022/05/15 03:07:49;;;;;;;21.50;12.07;;;;;;;10.54;100.00;93411.44;5050807;28;20068;-72
2022/05/15 03:10:18;;;;;;;16.00;10.77;;;;;;;10.66;100.00;93408.22;5051770;28;20072;-72
2022/05/15 03:12:45;;;;;;;17.02;11.02;;;;;;;10.75;100.00;93408.75;5051827;28;20072;-72
2022/05/15 03:15:14;;;;;;;15.80;10.10;;;;;;;10.85;100.00;93406.53;5051480;28;20052;-72
2022/05/15 03:17:42;;;;;;;15.75;10.43;;;;;;;10.87;100.00;93404.53;5051293;28;20583;-72
2022/05/15 03:20:14;;;;;;;14.60;9.50;;;;;;;10.92;100.00;93411.66;5051375;28;20123;-73
2022/05/15 03:22:41;;;;;;;14.93;9.50;;;;;;;10.94;100.00;93412.22;5051644;28;20053;-72
2022/05/15 03:25:09;;;;;;;16.63;9.60;;;;;;;10.94;100.00;93412.22;5051486;28;20049;-72
2022/05/15 03:27:36;;;;;;;15.45;9.68;;;;;;;10.97;100.00;93416.94;5051273;28;20591;-72
2022/05/15 03:30:04;;;;;;;15.30;9.40;;;;;;;10.93;100.00;93408.84;5051446;28;20095;-72
2022/05/15 03:32:31;;;;;;;12.32;8.45;;;;;;;10.98;100.00;93421.09;5051198;28;20535;-72
2022/05/15 03:34:58;;;;;;;12.93;8.45;;;;;;;11.01;100.00;93420.69;5051251;28;20439;-72
2022/05/15 03:37:26;;;;;;;15.35;9.20;;;;;;;11.01;100.00;93425.03;5051098;28;20056;-72
2022/05/15 03:39:54;;;;;;;16.38;10.60;;;;;;;11.05;100.00;93418.47;5051244;28;20076;-72
2022/05/15 03:42:21;;;;;;;11.85;8.75;;;;;;;11.11;100.00;93425.34;5050928;28;20060;-72
2022/05/15 03:44:47;;;;;;;13.95;9.77;;;;;;;11.11;100.00;93420.22;5051063;28;20052;-72
2022/05/15 03:47:15;;;;;;;12.70;8.82;;;;;;;11.14;100.00;93422.38;5050725;28;20041;-72
2022/05/15 03:49:41;;;;;;;15.68;9.82;;;;;;;11.15;100.00;93413.66;5050894;28;20069;-72
2022/05/15 03:52:08;;;;;;;15.52;9.98;;;;;;;11.22;100.00;93422.13;5050904;28;20049;-72
2022/05/15 03:54:37;;;;;;;13.23;9.20;;;;;;;11.27;100.00;93426.66;5051083;28;20697;-72
2022/05/15 03:57:05;;;;;;;16.42;9.63;;;;;;;11.31;100.00;93427.81;5058281;28;20056;-72
2022/05/15 03:59:34;;;;;;;15.45;8.93;;;;;;;11.32;100.00;93426.81;5070990;28;20053;-73
2022/05/15 04:02:02;;;;;;;12.48;8.05;;;;;;;11.33;100.00;93430.97;5070588;28;20049;-73
2022/05/15 04:04:30;;;;;;;12.50;8.48;;;;;;;11.38;100.00;93427.75;5070692;28;21246;-73
2022/05/15 04:06:57;;;;;;;13.82;8.70;;;;;;;11.41;100.00;93431.69;5070012;28;20048;-73
2022/05/15 04:09:24;;;;;;;13.63;7.88;;;;;;;11.39;100.00;93429.31;5070333;28;20056;-73
2022/05/15 04:11:52;;;;;;;11.55;7.90;;;;;;;11.43;100.00;93435.63;5058758;28;20045;-73
2022/05/15 04:14:19;;;;;;;12.00;7.22;;;;;;;11.42;100.00;93440.97;5050104;28;20053;-73
2022/05/15 04:16:46;;;;;;;12.13;7.38;;;;;;;11.44;100.00;93436.44;5050226;28;20393;-73
2022/05/15 04:19:13;;;;;;;14.10;8.68;;;;;;;11.39;100.00;93441.41;5055625;28;20040;-72
2022/05/15 04:21:41;;;;;;;11.05;7.55;;;;;;;11.40;100.00;93433.50;5055778;28;20059;-72
2022/05/15 04:24:10;;;;;;;15.77;9.50;;;;;;;11.47;100.00;93441.16;5063414;28;20088;-72
2022/05/15 04:26:38;;;;;;;14.25;9.18;;;;;;;11.28;100.00;93438.50;5068756;28;20499;-72
2022/05/15 04:29:07;;;;;;;25.25;11.50;;;;;;;11.28;100.00;93437.72;5063400;28;20059;-72
2022/05/15 04:31:35;;;;;;;24.13;13.73;;;;;;;11.16;100.00;93407.53;5068562;28;20048;-72
2022/05/15 04:34:01;;;;;;;13.95;8.57;;;;;;;11.12;100.00;93433.88;5070233;28;20041;-72
2022/05/15 04:36:28;;;;;;;14.90;10.43;;;;;;;10.98;100.00;93440.88;5070167;28;20059;-72
2022/05/15 04:38:56;;;;;;;12.95;9.68;;;;;;;10.77;100.00;93442.75;5070144;28;20416;-72
2022/05/15 04:41:23;;;;;;;13.18;10.02;;;;;;;10.99;100.00;93443.25;5069714;28;20041;-72
2022/05/15 04:43:51;;;;;;;14.43;9.73;;;;;;;11.16;100.00;93435.03;5069715;28;20048;-72
2022/05/15 04:46:21;;;;;;;14.57;9.60;;;;;;;11.09;100.00;93441.00;5069399;28;20087;-72
2022/05/15 04:48:49;;;;;;;18.73;10.77;;;;;;;11.09;100.00;93448.72;5069751;28;20132;-72
2022/05/15 04:51:15;;;;;;;15.50;10.38;;;;;;;11.11;100.00;93445.16;5069760;28;20048;-72
2022/05/15 04:53:42;;;;;;;20.52;12.52;;;;;;;11.13;100.00;93443.16;5069481;28;20049;-72
2022/05/15 04:56:09;;;;;;;19.25;12.30;;;;;;;11.24;100.00;93445.06;5069673;28;20047;-73
2022/05/15 04:58:36;;;;;;;17.58;12.00;;;;;;;11.39;100.00;93434.47;5069387;28;20052;-73
2022/05/15 05:01:03;;;;;;;15.70;10.57;;;;;;;11.49;100.00;93444.31;5069807;28;20052;-73
2022/05/15 05:03:31;;;;;;;26.80;15.75;;;;;;;11.61;100.00;93445.22;5069842;28;20045;-73
2022/05/15 05:05:58;;;;;;;15.73;11.50;;;;;;;11.61;100.00;93447.78;5069090;28;20048;-73
2022/05/15 05:08:25;;;;;;;19.45;12.55;;;;;;;11.68;100.00;93447.75;5069353;28;20052;-73
2022/05/15 05:10:51;;;;;;;17.10;11.35;;;;;;;11.45;100.00;93433.66;5068829;28;20045;-73
2022/05/15 05:13:18;;;;;;;16.92;11.15;;;;;;;11.72;100.00;93428.28;5069109;28;20052;-73
2022/05/15 05:15:45;;;;;;;17.92;12.13;;;;;;;12.17;100.00;93447.13;5069201;28;20067;-73
2022/05/15 05:18:15;;;;;;;19.58;11.80;;;;;;;12.35;100.00;93453.31;5069478;28;20045;-73
2022/05/15 05:20:43;;;;;;;17.23;11.27;;;;;;;12.70;100.00;93458.66;5069311;28;20123;-73
2022/05/15 05:23:10;;;;;;;24.55;14.57;;;;;;;12.80;100.00;93454.78;5069204;28;20056;-73
2022/05/15 05:25:37;;;;;;;31.15;15.52;;;;;;;13.03;100.00;93455.88;5068996;28;20063;-73
2022/05/15 05:28:05;;;;;;;35.22;17.00;;;;;;;13.26;100.00;93449.22;5069193;28;20048;-73
2022/05/15 05:30:32;;;;;;;37.15;18.70;;;;;;;13.41;100.00;93448.81;5068994;28;20059;-73
2022/05/15 05:32:59;;;;;;;35.15;17.75;;;;;;;13.63;100.00;93457.66;5068625;28;20057;-73
2022/05/15 05:35:27;;;;;;;45.08;21.77;;;;;;;13.89;100.00;93460.06;5068681;28;20049;-73
2022/05/15 05:37:55;;;;;;;38.97;20.02;;;;;;;14.10;100.00;93456.13;5069473;28;20044;-73
2022/05/15 05:40:23;;;;;;;46.85;23.60;;;;;;;13.73;100.00;93458.91;5069380;28;20048;-73
2022/05/15 05:42:50;;;;;;;48.50;24.48;;;;;;;13.90;100.00;93451.28;5069358;28;20075;-73
2022/05/15 05:45:17;;;;;;;51.78;26.45;;;;;;;14.05;100.00;93453.41;5069092;28;20067;-74
2022/05/15 05:47:46;;;;;;;61.63;28.88;;;;;;;14.07;100.00;93456.56;5069072;28;20055;-74
2022/05/15 05:50:14;;;;;;;65.40;29.77;;;;;;;14.13;100.00;93447.91;5069409;28;20076;-74
2022/05/15 05:52:42;;;;;;;61.33;30.83;;;;;;;14.37;100.00;93452.28;5068874;28;20052;-74
2022/05/15 05:55:13;;;;;;;72.57;33.83;;;;;;;14.47;100.00;93451.69;5069329;28;20055;-74
2022/05/15 05:57:41;;;;;;;77.43;32.08;;;;;;;14.84;100.00;93454.00;5069148;28;20053;-74
2022/05/15 06:00:18;;;;;;;71.63;32.40;;;;;;;15.06;100.00;93453.38;5068880;28;20044;-74
2022/05/15 06:02:45;;;;;;;77.43;34.30;;;;;;;15.13;100.00;93455.81;5068876;28;20411;-74
2022/05/15 06:05:11;;;;;;;76.90;31.80;;;;;;;15.37;100.00;93451.31;5068640;28;20056;-74
2022/05/15 06:07:38;;;;;;;71.70;32.78;;;;;;;15.42;100.00;93453.97;5068930;28;20048;-74
2022/05/15 06:10:07;;;;;;;76.88;34.75;;;;;;;15.39;100.00;93456.25;5069073;28;20105;-74
2022/05/15 06:12:35;;;;;;;82.22;35.70;;;;;;;15.53;100.00;93456.72;5066374;28;20048;-77
2022/05/15 06:15:02;;;;;;;78.07;32.55;;;;;;;15.40;100.00;93461.19;5066942;28;20048;-74
2022/05/15 06:17:30;;;;;;;81.82;34.67;;;;;;;15.60;100.00;93465.16;5067231;28;20470;-74
2022/05/15 06:19:58;;;;;;;78.45;34.28;;;;;;;15.75;100.00;93469.78;5068755;28;20055;-74
2022/05/15 06:22:25;;;;;;;84.93;34.95;;;;;;;15.92;100.00;93461.22;5068609;28;20057;-74
2022/05/15 06:24:52;;;;;;;74.68;32.90;;;;;;;16.03;100.00;93466.34;5068431;28;20063;-74
2022/05/15 06:27:18;;;;;;;79.32;32.75;;;;;;;16.39;100.00;93471.25;5068436;28;20060;-74
2022/05/15 06:29:47;;;;;;;77.95;33.72;;;;;;;16.81;100.00;93462.16;5068256;28;20051;-74
2022/05/15 06:32:13;;;;;;;76.30;32.22;;;;;;;17.27;100.00;93471.47;5067943;28;20056;-74
2022/05/15 06:34:40;;;;;;;71.90;30.42;;;;;;;17.61;100.00;93473.09;5068004;28;20048;-75
2022/05/15 06:37:07;;;;;;;68.22;29.63;;;;;;;18.05;100.00;93481.75;5068716;28;20131;-75
2022/05/15 06:39:34;;;;;;;72.20;31.70;;;;;;;18.41;100.00;93477.59;5068972;28;20127;-75
2022/05/15 06:42:01;;;;;;;72.25;30.38;;;;;;;18.83;100.00;93480.38;5070094;28;20138;-74
2022/05/15 06:44:28;;;;;;;61.83;28.35;;;;;;;18.89;100.00;93473.38;5071872;28;20495;-74
2022/05/15 06:46:57;;;;;;;58.00;25.02;;;;;;;18.94;98.73;93474.19;5072043;28;20067;-74
2022/05/15 06:49:24;;;;;;;47.30;19.33;;;;;;;19.23;94.26;93471.19;5071888;28;20052;-74
2022/05/15 06:51:51;;;;;;;52.00;22.83;;;;;;;19.44;97.77;93475.66;5069646;28;20048;-74
2022/05/15 06:54:18;;;;;;;57.60;25.63;;;;;;;19.67;100.00;93463.94;5066762;28;20550;-75
2022/05/15 06:59:29;;;;;;;34.35;14.00;;;;;;;20.11;89.40;93467.88;5067108;28;20089;-75
2022/05/15 07:01:57;;;;;;;32.17;13.02;;;;;;;20.45;84.23;93476.91;5067007;28;20763;-76
2022/05/15 07:04:24;;;;;;;34.72;13.20;;;;;;;20.14;83.01;93467.31;5067406;28;20053;-76
2022/05/15 07:06:51;;;;;;;32.00;13.00;;;;;;;20.61;86.36;93469.06;5067099;28;20052;-75
2022/05/15 07:09:17;;;;;;;32.83;13.90;;;;;;;21.12;89.12;93454.25;5066720;28;20584;-75
2022/05/15 07:11:44;;;;;;;33.25;11.80;;;;;;;20.73;81.98;93455.72;5066517;28;20056;-75
2022/05/15 07:14:11;;;;;;;28.40;10.93;;;;;;;21.24;85.75;93457.31;5063413;28;20051;-75
2022/05/15 07:16:38;;;;;;;22.25;9.15;;;;;;;21.69;79.55;93461.72;5066624;28;20057;-75
2022/05/15 07:19:07;;;;;;;23.50;7.93;;;;;;;21.88;76.72;93461.88;5048072;28;20059;-75
2022/05/15 07:21:33;;;;;;;20.05;8.57;;;;;;;22.32;78.81;93451.56;5063509;28;20471;-75
2022/05/15 07:24:00;;;;;;;16.95;8.05;;;;;;;22.71;79.66;93462.97;5062935;28;20049;-75
2022/05/15 07:26:27;;;;;;;23.23;8.65;;;;;;;22.40;77.41;93466.66;5065260;28;20075;-75
2022/05/15 07:28:54;;;;;;;17.75;7.13;;;;;;;22.47;76.40;93463.69;5065735;28;20045;-75
2022/05/15 07:31:22;;;;;;;19.42;6.40;;;;;;;22.46;71.31;93470.78;5065478;28;20044;-75
2022/05/15 07:33:50;;;;;;;14.65;5.45;;;;;;;22.32;70.95;93457.56;5066279;28;20049;-75
2022/05/15 07:36:18;;;;;;;11.82;5.35;;;;;;;22.64;70.02;93461.44;5066512;28;20053;-75
2022/05/15 07:38:45;;;;;;;15.70;5.32;;;;;;;22.61;72.75;93459.41;5066203;28;20496;-75
2022/05/15 07:41:14;;;;;;;8.82;3.95;;;;;;;22.37;69.03;93462.75;5066551;28;20064;-75
2022/05/15 07:43:41;;;;;;;5.65;3.78;;;;;;;21.58;69.80;93453.97;5066262;28;20044;-75
2022/05/15 07:46:08;;;;;;;9.55;4.68;;;;;;;21.47;74.46;93449.84;5065981;28;20049;-75
2022/05/15 07:48:35;;;;;;;5.68;3.63;;;;;;;20.76;77.43;93450.75;5066080;28;20511;-75
2022/05/15 07:51:02;;;;;;;8.10;4.80;;;;;;;21.03;76.32;93452.22;5065980;28;20045;-75
2022/05/15 07:53:31;;;;;;;11.32;3.97;;;;;;;21.40;76.35;93452.78;5065085;28;20423;-75
2022/05/15 07:56:03;;;;;;;7.72;4.07;;;;;;;21.44;69.16;93460.88;5066060;28;20053;-75
2022/05/15 07:58:30;;;;;;;11.15;3.72;;;;;;;21.73;72.55;93465.41;5045821;28;20139;-75
2022/05/15 08:00:57;;;;;;;8.43;4.55;;;;;;;22.23;75.22;93461.84;5046088;28;20052;-75
2022/05/15 08:03:24;;;;;;;7.00;3.90;;;;;;;22.72;69.10;93462.66;5045663;28;20045;-75
2022/05/15 08:08:41;;;;;;;4.90;2.70;;;;;;;23.33;64.28;93464.84;5024309;28;20815;-75
2022/05/15 08:11:08;;;;;;;6.15;3.13;;;;;;;21.69;58.67;93459.91;5045681;28;20523;-75
2022/05/15 08:13:35;;;;;;;4.82;2.80;;;;;;;21.68;65.34;93466.19;5045496;28;20064;-75
2022/05/15 08:16:02;;;;;;;4.50;2.50;;;;;;;22.03;63.74;93466.19;5045553;28;20052;-74
2022/05/15 08:24:01;;;;;;;5.25;2.38;;;;;;;21.40;65.21;93475.53;5064723;28;20476;-75
2022/05/15 08:26:29;;;;;;;5.28;2.08;;;;;;;21.27;64.09;93469.06;5065283;28;20053;-75
2022/05/15 08:28:57;;;;;;;5.18;2.92;;;;;;;21.81;66.93;93464.81;5064707;28;20052;-75
2022/05/15 08:31:26;;;;;;;4.28;2.13;;;;;;;21.41;66.22;93474.47;5065421;28;20066;-75
2022/05/15 08:33:53;;;;;;;5.30;1.73;;;;;;;21.81;66.29;93469.25;5064842;28;20053;-75
2022/05/15 08:36:21;;;;;;;2.92;1.83;;;;;;;22.00;59.31;93488.44;5065061;28;20045;-75
2022/05/15 08:38:48;;;;;;;6.47;1.85;;;;;;;22.27;60.16;93479.31;5065392;28;20044;-75
2022/05/15 08:41:24;;;;;;;2.75;1.52;;;;;;;22.59;59.59;93479.06;5065119;28;20404;-75
2022/05/15 08:44:00;;;;;;;4.93;2.05;;;;;;;22.47;60.10;93450.59;5065409;28;20056;-75
2022/05/15 08:46:34;;;;;;;3.75;1.48;;;;;;;23.17;58.82;93456.34;5064817;28;20052;-76
2022/05/15 08:49:08;;;;;;;3.47;1.67;;;;;;;23.35;54.28;93465.31;5064916;28;20049;-75
2022/05/15 08:51:35;;;;;;;2.88;1.38;;;;;;;23.40;53.22;93451.34;5064963;28;20153;-75
2022/05/15 08:54:06;;;;;;;6.32;1.90;;;;;;;23.58;52.84;93465.53;5064739;28;20044;-75
2022/05/15 08:56:41;;;;;;;4.78;2.05;;;;;;;23.92;55.23;93461.09;5065177;28;20048;-75
2022/05/15 08:59:20;;;;;;;3.88;2.10;;;;;;;23.98;54.15;93462.56;5065034;28;20051;-75
2022/05/15 09:01:50;;;;;;;3.65;1.88;;;;;;;24.34;50.42;93454.09;5062978;28;20068;-75
2022/05/15 09:04:17;;;;;;;3.58;1.70;;;;;;;24.73;53.33;93440.78;5054949;28;20143;-76
2022/05/15 09:06:54;;;;;;;3.55;1.92;;;;;;;24.78;50.58;93457.22;5064557;28;20049;-76
2022/05/15 09:09:30;;;;;;;3.83;1.85;;;;;;;23.95;51.06;93436.88;5064861;28;20693;-75
2022/05/15 09:12:03;;;;;;;2.85;2.10;;;;;;;22.88;55.46;93467.72;5064993;28;20055;-75
2022/05/15 09:14:42;;;;;;;3.08;1.88;;;;;;;23.49;51.53;93460.94;5064030;28;20052;-75
2022/05/15 09:17:19;;;;;;;3.30;2.10;;;;;;;23.24;49.44;93456.81;5064063;28;20063;-76
2022/05/15 09:19:50;;;;;;;4.22;1.63;;;;;;;23.27;54.69;93445.75;5064846;28;20048;-75
2022/05/15 09:22:18;;;;;;;4.13;2.25;;;;;;;23.69;53.19;93443.31;5064734;28;20072;-76
2022/05/15 09:24:48;;;;;;;12.13;1.95;;;;;;;23.29;50.57;93443.59;5064409;28;20056;-75
2022/05/15 09:27:18;;;;;;;2.78;1.50;;;;;;;23.06;50.19;93442.63;5064404;28;20060;-75
2022/05/15 09:29:53;;;;;;;3.40;1.58;;;;;;;23.25;54.38;93428.75;5064756;28;20049;-75
2022/05/15 09:32:28;;;;;;;4.93;1.55;;;;;;;23.65;51.59;93447.56;5063706;28;20090;-76
2022/05/15 09:34:57;;;;;;;;;;;;;;;23.59;50.59;93443.47;5065125;28;20044;-76
2022/05/15 09:40:15;;;;;;;4.22;1.50;;;;;;;23.84;49.39;93444.16;5064424;28;20091;-76
2022/05/15 09:45:55;;;;;;;4.60;1.20;;;;;;;24.59;45.17;93440.78;5064325;28;20059;-76
2022/05/15 09:48:25;;;;;;;1.95;1.17;;;;;;;24.07;45.39;93439.81;5064816;28;20697;-76
2022/05/15 09:51:01;;;;;;;3.50;1.33;;;;;;;23.86;44.16;93434.16;5064528;28;20044;-77
2022/05/15 09:53:39;;;;;;;5.95;1.40;;;;;;;24.29;46.57;93422.69;5063780;28;20055;-77
2022/05/15 09:56:08;;;;;;;2.15;1.10;;;;;;;23.18;43.95;93431.72;5063977;28;20053;-76
2022/05/15 09:58:44;;;;;;;3.83;1.50;;;;;;;23.97;45.69;93435.53;5064396;28;20063;-77
2022/05/15 10:01:21;;;;;;;8.57;2.50;;;;;;;24.58;41.88;93433.97;5064754;28;20055;-77
2022/05/15 10:03:52;;;;;;;4.43;1.73;;;;;;;24.22;45.38;93417.81;5057564;28;20126;-77
2022/05/15 10:06:22;;;;;;;4.90;1.65;;;;;;;24.37;45.79;93421.22;5063243;28;20067;-77
2022/05/15 10:09:09;;;;;;;3.67;1.60;;;;;;;25.04;46.28;93412.03;5049998;28;20044;-77
2022/05/15 10:11:38;;;;;;;3.28;1.50;;;;;;;25.22;44.69;93427.97;5062822;28;20381;-77
2022/05/15 10:14:09;;;;;;;3.10;1.70;;;;;;;24.69;41.75;93433.50;5063874;28;20084;-77
2022/05/15 10:16:47;;;;;;;3.60;1.58;;;;;;;23.90;43.06;93432.50;5066024;28;20045;-76
2022/05/15 10:19:25;;;;;;;2.65;1.25;;;;;;;24.41;45.10;93430.88;5047757;28;20523;-77
2022/05/15 10:21:57;;;;;;;3.30;1.90;;;;;;;25.05;42.38;93423.34;5047682;28;20049;-77
2022/05/15 10:24:29;;;;;;;4.63;1.45;;;;;;;25.47;39.40;93410.06;5048032;28;20560;-78
2022/05/15 10:27:02;;;;;;;2.85;1.30;;;;;;;25.61;40.67;93423.19;5047396;28;20051;-76
2022/05/15 10:29:38;;;;;;;3.95;1.40;;;;;;;26.01;40.75;93418.00;5047734;28;20522;-76
2022/05/15 10:32:11;;;;;;;2.92;1.30;;;;;;;26.24;39.00;93410.09;5063790;28;20048;-77
2022/05/15 10:34:38;;;;;;;2.92;1.45;;;;;;;24.84;36.89;93412.50;5066858;28;20059;-77
2022/05/15 10:37:19;;;;;;;2.15;1.08;;;;;;;25.35;40.75;93403.50;5067360;28;20988;-77
2022/05/15 10:40:03;;;;;;;3.40;1.25;;;;;;;25.61;39.15;93416.06;5067741;28;20059;-77
2022/05/15 10:42:39;;;;;;;3.90;1.40;;;;;;;24.97;39.43;93413.53;5067932;28;20113;-76
2022/05/15 10:45:19;;;;;;;2.35;1.05;;;;;;;24.62;42.03;93380.56;5067337;28;20757;-77
2022/05/15 10:48:03;;;;;;;2.50;1.20;;;;;;;25.42;40.32;93402.31;5067421;28;20055;-77
2022/05/15 10:50:43;;;;;;;1.92;1.20;;;;;;;25.28;38.05;93410.25;5067384;28;20052;-76
2022/05/15 10:59:22;;;;;;;2.20;1.30;;;;;;;25.27;39.08;93414.72;5067145;28;20098;-76
2022/05/15 11:01:59;;;;;;;3.20;0.82;;;;;;;24.99;36.04;93409.53;5046996;28;20052;-75
2022/05/15 11:04:41;;;;;;;2.58;1.17;;;;;;;24.79;36.81;93408.06;5046989;28;20049;-76
2022/05/15 11:07:16;;;;;;;7.40;1.55;;;;;;;23.78;36.67;93390.22;5047091;28;20052;-76
2022/05/15 11:09:57;;;;;;;1.80;0.93;;;;;;;23.59;40.28;93397.06;5046947;28;20056;-75
2022/05/15 11:12:31;;;;;;;3.95;1.20;;;;;;;22.99;40.14;93398.44;5047216;28;20064;-75
2022/05/15 11:15:08;;;;;;;2.95;1.20;;;;;;;23.82;43.33;93394.59;5054751;28;20424;-75
2022/05/15 11:17:45;;;;;;;2.58;1.33;;;;;;;24.47;42.88;93394.00;5064073;28;20055;-76
2022/05/15 11:20:17;;;;;;;3.72;1.48;;;;;;;24.99;39.52;93382.50;5064716;28;20048;-76
2022/05/15 11:22:48;;;;;;;3.75;1.30;;;;;;;25.17;38.29;93393.91;5066316;28;20051;-76
2022/05/15 11:25:20;;;;;;;1.88;1.20;;;;;;;24.00;39.60;93390.38;5066070;28;20531;-75
2022/05/15 11:27:49;;;;;;;1.85;1.02;;;;;;;23.61;41.17;93366.09;5066278;28;20411;-75
2022/05/15 11:30:24;;;;;;;4.20;1.80;;;;;;;24.38;38.63;93393.91;5066248;28;20056;-76
2022/05/15 11:33:26;;;;;;;5.50;1.27;;;;;;;24.68;38.10;93376.75;5062364;28;20055;-76
2022/05/15 11:36:09;;;;;;;3.60;1.35;;;;;;;25.41;38.80;93375.22;5056148;28;20048;-76
2022/05/15 11:38:48;;;;;;;1.75;0.80;;;;;;;25.71;35.91;93372.97;5065475;28;20804;-76
2022/05/15 11:41:41;;;;;;;2.20;0.90;;;;;;;26.01;37.19;93370.63;5066302;28;20106;-76
2022/05/15 11:44:12;;;;;;;3.67;1.63;;;;;;;26.20;38.36;93360.97;5055940;28;20526;-76
2022/05/15 11:47:16;;;;;;;2.30;1.13;;;;;;;26.67;37.33;93377.06;5065422;28;20148;-76
2022/05/15 11:50:00;;;;;;;1.80;0.97;;;;;;;25.80;36.25;93369.59;5066563;28;20055;-76
2022/05/15 11:52:35;;;;;;;2.40;1.40;;;;;;;25.48;37.55;93375.59;5066139;28;20293;-76
2022/05/15 11:55:38;;;;;;;3.33;1.20;;;;;;;25.96;38.03;93370.00;5066179;28;20458;-77
2022/05/15 11:58:26;;;;;;;2.58;1.50;;;;;;;26.19;37.74;93364.69;5066225;28;20044;-76
2022/05/15 12:01:18;;;;;;;3.60;1.15;;;;;;;25.14;37.92;93365.59;5065784;28;20051;-77